sensor_id;sensor_type;location;lat;lon;timestamp;pressure;altitude;pressure_sealevel;temperature;humidity
13719;BME280;6931;51.100;17.068;2022-07-15T00:00:47;99974.41;;;18.67;54.60
13719;BME280;6931;51.100;17.068;2022-07-15T00:03:14;99981.66;;;18.68;54.90
13719;BME280;6931;51.100;17.068;2022-07-15T00:05:41;99969.06;;;18.81;53.75
13719;BME280;6931;51.100;17.068;2022-07-15T00:08:08;99966.53;;;18.40;55.26
13719;BME280;6931;51.100;17.068;2022-07-15T00:10:35;99972.19;;;18.83;54.07
13719;BME280;6931;51.100;17.068;2022-07-15T00:13:02;99965.16;;;18.88;53.85
13719;BME280;6931;51.100;17.068;2022-07-15T00:15:31;99964.94;;;18.73;53.13
13719;BME280;6931;51.100;17.068;2022-07-15T00:17:59;99977.38;;;18.85;55.84
13719;BME280;6931;51.100;17.068;2022-07-15T00:20:31;99973.56;;;18.79;54.59
13719;BME280;6931;51.100;17.068;2022-07-15T00:23:06;99976.84;;;18.77;54.41
13719;BME280;6931;51.100;17.068;2022-07-15T00:25:33;99981.19;;;19.12;53.08
13719;BME280;6931;51.100;17.068;2022-07-15T00:28:03;99977.22;;;19.31;52.73
13719;BME280;6931;51.100;17.068;2022-07-15T00:30:35;99990.09;;;19.32;51.85
13719;BME280;6931;51.100;17.068;2022-07-15T00:33:03;99994.03;;;19.13;52.38
13719;BME280;6931;51.100;17.068;2022-07-15T00:35:31;99987.94;;;18.93;54.54
13719;BME280;6931;51.100;17.068;2022-07-15T00:37:58;99990.91;;;19.11;53.35
13719;BME280;6931;51.100;17.068;2022-07-15T00:40:25;99981.13;;;19.03;52.70
13719;BME280;6931;51.100;17.068;2022-07-15T00:42:52;99991.28;;;19.22;52.92
13719;BME280;6931;51.100;17.068;2022-07-15T00:45:21;100004.31;;;18.98;53.12
13719;BME280;6931;51.100;17.068;2022-07-15T00:47:51;100003.00;;;19.33;52.09
13719;BME280;6931;51.100;17.068;2022-07-15T00:50:19;99990.13;;;19.11;51.79
13719;BME280;6931;51.100;17.068;2022-07-15T00:52:54;99998.44;;;18.93;53.73
13719;BME280;6931;51.100;17.068;2022-07-15T00:55:23;99997.19;;;19.15;53.64
13719;BME280;6931;51.100;17.068;2022-07-15T00:57:52;100003.69;;;19.03;53.79
13719;BME280;6931;51.100;17.068;2022-07-15T01:00:21;100006.19;;;19.01;54.00
13719;BME280;6931;51.100;17.068;2022-07-15T01:02:48;100002.31;;;18.86;56.01
13719;BME280;6931;51.100;17.068;2022-07-15T01:05:19;100008.84;;;18.96;54.38
13719;BME280;6931;51.100;17.068;2022-07-15T01:07:47;100029.88;;;17.76;58.32
13719;BME280;6931;51.100;17.068;2022-07-15T01:10:17;100025.09;;;17.36;59.83
13719;BME280;6931;51.100;17.068;2022-07-15T01:12:49;100028.75;;;17.74;59.10
13719;BME280;6931;51.100;17.068;2022-07-15T01:15:17;100043.38;;;17.56;60.44
13719;BME280;6931;51.100;17.068;2022-07-15T01:17:45;100022.56;;;17.91;59.67
13719;BME280;6931;51.100;17.068;2022-07-15T01:20:14;100025.25;;;17.82;59.61
13719;BME280;6931;51.100;17.068;2022-07-15T01:22:41;100017.81;;;17.63;59.41
13719;BME280;6931;51.100;17.068;2022-07-15T01:25:08;100033.59;;;17.98;58.61
13719;BME280;6931;51.100;17.068;2022-07-15T01:27:34;100021.41;;;17.89;59.74
13719;BME280;6931;51.100;17.068;2022-07-15T01:30:01;100027.25;;;18.07;58.93
13719;BME280;6931;51.100;17.068;2022-07-15T01:32:28;100034.34;;;18.11;58.49
13719;BME280;6931;51.100;17.068;2022-07-15T01:34:55;100037.19;;;17.74;59.72
13719;BME280;6931;51.100;17.068;2022-07-15T01:37:22;100042.56;;;17.43;61.28
13719;BME280;6931;51.100;17.068;2022-07-15T01:39:48;100033.47;;;17.77;59.79
13719;BME280;6931;51.100;17.068;2022-07-15T01:42:15;100037.84;;;17.53;60.43
13719;BME280;6931;51.100;17.068;2022-07-15T01:44:42;100048.38;;;17.24;60.85
13719;BME280;6931;51.100;17.068;2022-07-15T01:47:09;100052.44;;;17.35;60.69
13719;BME280;6931;51.100;17.068;2022-07-15T01:49:36;100038.72;;;17.25;60.12
13719;BME280;6931;51.100;17.068;2022-07-15T01:52:03;100047.50;;;17.39;60.24
13719;BME280;6931;51.100;17.068;2022-07-15T01:54:31;100037.56;;;17.22;60.27
13719;BME280;6931;51.100;17.068;2022-07-15T01:56:58;100050.50;;;17.19;60.64
13719;BME280;6931;51.100;17.068;2022-07-15T01:59:25;100053.09;;;17.14;59.48
13719;BME280;6931;51.100;17.068;2022-07-15T02:01:55;100049.53;;;17.26;59.07
13719;BME280;6931;51.100;17.068;2022-07-15T02:04:22;100052.19;;;16.88;60.63
13719;BME280;6931;51.100;17.068;2022-07-15T02:06:50;100053.97;;;17.11;59.59
13719;BME280;6931;51.100;17.068;2022-07-15T02:09:17;100060.19;;;17.18;58.79
13719;BME280;6931;51.100;17.068;2022-07-15T02:11:44;100062.41;;;17.11;58.37
13719;BME280;6931;51.100;17.068;2022-07-15T02:14:11;100064.31;;;17.01;58.44
13719;BME280;6931;51.100;17.068;2022-07-15T02:16:38;100066.16;;;16.92;58.15
13719;BME280;6931;51.100;17.068;2022-07-15T02:19:06;100065.44;;;17.04;58.29
13719;BME280;6931;51.100;17.068;2022-07-15T02:21:33;100066.38;;;17.13;57.85
13719;BME280;6931;51.100;17.068;2022-07-15T02:23:59;100063.22;;;17.11;58.46
13719;BME280;6931;51.100;17.068;2022-07-15T02:26:26;100056.41;;;16.96;57.85
13719;BME280;6931;51.100;17.068;2022-07-15T02:28:53;100071.16;;;16.72;56.72
13719;BME280;6931;51.100;17.068;2022-07-15T02:31:20;100084.69;;;16.77;58.38
13719;BME280;6931;51.100;17.068;2022-07-15T02:33:47;100075.91;;;16.75;58.16
13719;BME280;6931;51.100;17.068;2022-07-15T02:36:14;100076.06;;;16.68;58.78
13719;BME280;6931;51.100;17.068;2022-07-15T02:38:41;100087.88;;;16.63;57.42
13719;BME280;6931;51.100;17.068;2022-07-15T02:41:08;100072.34;;;16.58;57.87
13719;BME280;6931;51.100;17.068;2022-07-15T02:43:35;100071.72;;;16.51;57.96
13719;BME280;6931;51.100;17.068;2022-07-15T02:46:03;100081.56;;;16.59;57.02
13719;BME280;6931;51.100;17.068;2022-07-15T02:48:30;100078.13;;;16.51;58.19
13719;BME280;6931;51.100;17.068;2022-07-15T02:50:58;100097.34;;;16.37;57.32
13719;BME280;6931;51.100;17.068;2022-07-15T02:53:25;100096.22;;;16.50;57.84
13719;BME280;6931;51.100;17.068;2022-07-15T02:55:57;100095.56;;;16.46;57.13
13719;BME280;6931;51.100;17.068;2022-07-15T02:58:28;100101.34;;;16.55;56.81
13719;BME280;6931;51.100;17.068;2022-07-15T03:00:56;100103.94;;;16.62;56.40
13719;BME280;6931;51.100;17.068;2022-07-15T03:03:23;100101.91;;;16.79;57.16
13719;BME280;6931;51.100;17.068;2022-07-15T03:05:50;100111.72;;;16.58;56.99
13719;BME280;6931;51.100;17.068;2022-07-15T03:08:18;100110.53;;;16.72;57.10
13719;BME280;6931;51.100;17.068;2022-07-15T03:10:44;100123.41;;;16.57;56.99
13719;BME280;6931;51.100;17.068;2022-07-15T03:13:11;100129.13;;;16.53;57.54
13719;BME280;6931;51.100;17.068;2022-07-15T03:15:38;100127.16;;;16.34;56.58
13719;BME280;6931;51.100;17.068;2022-07-15T03:18:04;100133.28;;;16.45;57.73
13719;BME280;6931;51.100;17.068;2022-07-15T03:20:31;100128.75;;;16.51;57.32
13719;BME280;6931;51.100;17.068;2022-07-15T03:22:58;100135.59;;;16.34;57.44
13719;BME280;6931;51.100;17.068;2022-07-15T03:25:24;100146.69;;;16.57;57.59
13719;BME280;6931;51.100;17.068;2022-07-15T03:27:51;100144.38;;;16.36;57.51
13719;BME280;6931;51.100;17.068;2022-07-15T03:30:18;100154.13;;;16.32;57.94
13719;BME280;6931;51.100;17.068;2022-07-15T03:32:47;100141.03;;;16.25;58.03
13719;BME280;6931;51.100;17.068;2022-07-15T03:35:14;100147.00;;;16.27;58.23
13719;BME280;6931;51.100;17.068;2022-07-15T03:37:40;100153.75;;;16.14;58.11
13719;BME280;6931;51.100;17.068;2022-07-15T03:40:07;100153.75;;;16.30;58.30
13719;BME280;6931;51.100;17.068;2022-07-15T03:42:34;100161.63;;;16.54;57.14
13719;BME280;6931;51.100;17.068;2022-07-15T03:45:01;100166.63;;;16.47;57.48
13719;BME280;6931;51.100;17.068;2022-07-15T03:47:28;100165.34;;;16.16;58.21
13719;BME280;6931;51.100;17.068;2022-07-15T03:49:56;100168.88;;;16.36;57.61
13719;BME280;6931;51.100;17.068;2022-07-15T03:52:22;100175.00;;;16.15;58.84
13719;BME280;6931;51.100;17.068;2022-07-15T03:54:49;100167.38;;;16.15;58.45
13719;BME280;6931;51.100;17.068;2022-07-15T03:57:16;100177.09;;;16.46;57.58
13719;BME280;6931;51.100;17.068;2022-07-15T03:59:42;100167.03;;;16.29;57.88
13719;BME280;6931;51.100;17.068;2022-07-15T04:02:09;100177.69;;;16.38;57.48
13719;BME280;6931;51.100;17.068;2022-07-15T04:04:37;100181.25;;;16.22;57.57
13719;BME280;6931;51.100;17.068;2022-07-15T04:07:04;100179.69;;;15.85;58.48
13719;BME280;6931;51.100;17.068;2022-07-15T04:09:31;100174.59;;;15.96;57.51
13719;BME280;6931;51.100;17.068;2022-07-15T04:11:57;100186.75;;;16.10;58.17
13719;BME280;6931;51.100;17.068;2022-07-15T04:14:25;100185.44;;;15.98;58.16
13719;BME280;6931;51.100;17.068;2022-07-15T04:16:51;100185.91;;;15.93;58.65
13719;BME280;6931;51.100;17.068;2022-07-15T04:19:18;100186.19;;;15.98;58.85
13719;BME280;6931;51.100;17.068;2022-07-15T04:21:45;100181.44;;;16.15;58.21
13719;BME280;6931;51.100;17.068;2022-07-15T04:24:12;100185.34;;;16.01;58.67
13719;BME280;6931;51.100;17.068;2022-07-15T04:26:46;100192.31;;;16.13;57.95
13719;BME280;6931;51.100;17.068;2022-07-15T04:29:13;100183.88;;;16.13;57.93
13719;BME280;6931;51.100;17.068;2022-07-15T04:31:40;100202.31;;;16.14;57.68
13719;BME280;6931;51.100;17.068;2022-07-15T04:34:06;100201.63;;;16.10;58.31
13719;BME280;6931;51.100;17.068;2022-07-15T04:36:33;100213.19;;;16.12;57.67
13719;BME280;6931;51.100;17.068;2022-07-15T04:39:00;100206.34;;;16.13;58.55
13719;BME280;6931;51.100;17.068;2022-07-15T04:41:26;100200.59;;;16.20;57.63
13719;BME280;6931;51.100;17.068;2022-07-15T04:43:53;100217.53;;;16.17;58.92
13719;BME280;6931;51.100;17.068;2022-07-15T04:46:20;100214.88;;;16.10;58.22
13719;BME280;6931;51.100;17.068;2022-07-15T04:48:46;100217.25;;;16.11;57.96
13719;BME280;6931;51.100;17.068;2022-07-15T04:51:32;100222.88;;;16.11;57.12
13719;BME280;6931;51.100;17.068;2022-07-15T04:53:58;100220.88;;;16.28;57.91
13719;BME280;6931;51.100;17.068;2022-07-15T04:56:33;100224.75;;;16.34;57.36
13719;BME280;6931;51.100;17.068;2022-07-15T04:58:59;100224.78;;;16.14;57.24
13719;BME280;6931;51.100;17.068;2022-07-15T05:01:26;100233.78;;;16.25;57.43
13719;BME280;6931;51.100;17.068;2022-07-15T05:03:56;100233.28;;;15.94;57.15
13719;BME280;6931;51.100;17.068;2022-07-15T05:06:23;100204.66;;;15.99;57.19
13719;BME280;6931;51.100;17.068;2022-07-15T05:08:50;100238.06;;;16.14;56.84
13719;BME280;6931;51.100;17.068;2022-07-15T05:11:17;100240.97;;;15.90;56.85
13719;BME280;6931;51.100;17.068;2022-07-15T05:13:44;100252.53;;;16.12;56.26
13719;BME280;6931;51.100;17.068;2022-07-15T05:16:10;100246.97;;;15.92;56.40
13719;BME280;6931;51.100;17.068;2022-07-15T05:18:37;100242.41;;;15.98;57.53
13719;BME280;6931;51.100;17.068;2022-07-15T05:21:04;100259.41;;;16.11;57.27
13719;BME280;6931;51.100;17.068;2022-07-15T05:23:32;100258.00;;;16.19;56.23
13719;BME280;6931;51.100;17.068;2022-07-15T05:25:58;100248.97;;;16.28;55.50
13719;BME280;6931;51.100;17.068;2022-07-15T05:28:25;100258.78;;;16.39;56.76
13719;BME280;6931;51.100;17.068;2022-07-15T05:30:52;100268.63;;;16.12;55.27
13719;BME280;6931;51.100;17.068;2022-07-15T05:33:18;100260.13;;;16.15;54.93
13719;BME280;6931;51.100;17.068;2022-07-15T05:35:45;100269.78;;;16.14;55.17
13719;BME280;6931;51.100;17.068;2022-07-15T05:38:19;100262.88;;;16.19;55.63
13719;BME280;6931;51.100;17.068;2022-07-15T05:40:45;100272.75;;;16.43;55.83
13719;BME280;6931;51.100;17.068;2022-07-15T05:43:12;100280.09;;;16.56;55.60
13719;BME280;6931;51.100;17.068;2022-07-15T05:45:39;100278.19;;;16.69;54.58
13719;BME280;6931;51.100;17.068;2022-07-15T05:48:06;100283.47;;;16.83;54.49
13719;BME280;6931;51.100;17.068;2022-07-15T05:50:32;100294.78;;;16.48;54.06
13719;BME280;6931;51.100;17.068;2022-07-15T05:53:00;100287.34;;;16.38;53.84
13719;BME280;6931;51.100;17.068;2022-07-15T05:55:27;100287.34;;;16.73;54.12
13719;BME280;6931;51.100;17.068;2022-07-15T05:57:54;100297.47;;;16.71;53.33
13719;BME280;6931;51.100;17.068;2022-07-15T06:00:20;100283.66;;;16.76;54.35
13719;BME280;6931;51.100;17.068;2022-07-15T06:02:47;100304.22;;;16.73;53.93
13719;BME280;6931;51.100;17.068;2022-07-15T06:05:14;100300.47;;;16.96;54.13
13719;BME280;6931;51.100;17.068;2022-07-15T06:07:40;100292.91;;;16.93;53.34
13719;BME280;6931;51.100;17.068;2022-07-15T06:10:08;100298.03;;;16.46;53.47
13719;BME280;6931;51.100;17.068;2022-07-15T06:12:35;100299.88;;;16.53;53.18
13719;BME280;6931;51.100;17.068;2022-07-15T06:15:01;100312.47;;;16.64;53.34
13719;BME280;6931;51.100;17.068;2022-07-15T06:17:28;100303.13;;;16.51;53.38
13719;BME280;6931;51.100;17.068;2022-07-15T06:19:56;100293.66;;;16.61;53.53
13719;BME280;6931;51.100;17.068;2022-07-15T06:22:23;100313.78;;;16.60;52.79
13719;BME280;6931;51.100;17.068;2022-07-15T06:24:50;100303.94;;;16.52;52.64
13719;BME280;6931;51.100;17.068;2022-07-15T06:27:17;100301.72;;;16.59;52.51
13719;BME280;6931;51.100;17.068;2022-07-15T06:29:43;100297.72;;;16.60;51.93
13719;BME280;6931;51.100;17.068;2022-07-15T06:32:10;100317.72;;;16.98;51.75
13719;BME280;6931;51.100;17.068;2022-07-15T06:34:38;100316.75;;;17.04;52.18
13719;BME280;6931;51.100;17.068;2022-07-15T06:37:05;100315.31;;;17.12;52.45
13719;BME280;6931;51.100;17.068;2022-07-15T06:39:32;100312.34;;;17.03;52.29
13719;BME280;6931;51.100;17.068;2022-07-15T06:42:00;100325.47;;;17.26;52.00
13719;BME280;6931;51.100;17.068;2022-07-15T06:44:27;100325.03;;;17.28;51.91
13719;BME280;6931;51.100;17.068;2022-07-15T06:46:55;100316.56;;;17.28;51.64
13719;BME280;6931;51.100;17.068;2022-07-15T06:49:26;100316.03;;;17.33;52.50
13719;BME280;6931;51.100;17.068;2022-07-15T06:51:52;100329.59;;;17.54;50.84
13719;BME280;6931;51.100;17.068;2022-07-15T06:54:19;100321.06;;;17.57;51.96
13719;BME280;6931;51.100;17.068;2022-07-15T06:56:46;100318.38;;;17.66;51.55
13719;BME280;6931;51.100;17.068;2022-07-15T06:59:13;100315.47;;;17.70;52.21
13719;BME280;6931;51.100;17.068;2022-07-15T07:01:40;100333.00;;;17.77;52.82
13719;BME280;6931;51.100;17.068;2022-07-15T07:04:07;100333.59;;;17.85;51.83
13719;BME280;6931;51.100;17.068;2022-07-15T07:06:34;100333.28;;;17.67;51.15
13719;BME280;6931;51.100;17.068;2022-07-15T07:09:01;100324.28;;;17.72;51.02
13719;BME280;6931;51.100;17.068;2022-07-15T07:11:28;100333.44;;;17.76;50.61
13719;BME280;6931;51.100;17.068;2022-07-15T07:13:55;100330.41;;;17.83;50.47
13719;BME280;6931;51.100;17.068;2022-07-15T07:16:22;100333.31;;;17.95;50.64
13719;BME280;6931;51.100;17.068;2022-07-15T07:18:49;100342.69;;;18.05;51.89
13719;BME280;6931;51.100;17.068;2022-07-15T07:21:18;100345.41;;;18.08;50.98
13719;BME280;6931;51.100;17.068;2022-07-15T07:23:45;100351.28;;;18.14;50.83
13719;BME280;6931;51.100;17.068;2022-07-15T07:26:14;100351.09;;;18.21;51.21
13719;BME280;6931;51.100;17.068;2022-07-15T07:28:41;100346.38;;;18.30;50.52
13719;BME280;6931;51.100;17.068;2022-07-15T07:31:09;100340.91;;;18.11;50.13
13719;BME280;6931;51.100;17.068;2022-07-15T07:33:37;100339.50;;;18.32;49.29
13719;BME280;6931;51.100;17.068;2022-07-15T07:36:05;100351.13;;;18.34;50.10
13719;BME280;6931;51.100;17.068;2022-07-15T07:38:33;100345.00;;;18.64;51.50
13719;BME280;6931;51.100;17.068;2022-07-15T07:41:00;100341.19;;;18.58;51.98
13719;BME280;6931;51.100;17.068;2022-07-15T07:43:27;100337.28;;;18.10;50.48
13719;BME280;6931;51.100;17.068;2022-07-15T07:45:54;100343.72;;;18.11;51.31
13719;BME280;6931;51.100;17.068;2022-07-15T07:48:21;100321.09;;;18.27;50.76
13719;BME280;6931;51.100;17.068;2022-07-15T07:50:48;100339.97;;;18.30;48.82
13719;BME280;6931;51.100;17.068;2022-07-15T07:53:14;100343.63;;;18.43;50.15
13719;BME280;6931;51.100;17.068;2022-07-15T07:55:41;100336.78;;;18.69;50.17
13719;BME280;6931;51.100;17.068;2022-07-15T07:58:08;100337.00;;;18.62;49.56
13719;BME280;6931;51.100;17.068;2022-07-15T08:00:35;100330.00;;;18.79;47.67
13719;BME280;6931;51.100;17.068;2022-07-15T08:03:03;100322.88;;;19.12;48.82
13719;BME280;6931;51.100;17.068;2022-07-15T08:05:30;100331.81;;;18.73;47.34
13719;BME280;6931;51.100;17.068;2022-07-15T08:08:14;100334.88;;;18.91;46.23
13719;BME280;6931;51.100;17.068;2022-07-15T08:10:44;100340.50;;;18.91;46.99
13719;BME280;6931;51.100;17.068;2022-07-15T08:13:14;100341.38;;;18.63;47.68
13719;BME280;6931;51.100;17.068;2022-07-15T08:15:41;100335.28;;;18.52;47.55
13719;BME280;6931;51.100;17.068;2022-07-15T08:18:08;100344.56;;;18.53;48.53
13719;BME280;6931;51.100;17.068;2022-07-15T08:20:35;100338.88;;;18.40;49.00
13719;BME280;6931;51.100;17.068;2022-07-15T08:23:03;100332.00;;;18.41;48.89
13719;BME280;6931;51.100;17.068;2022-07-15T08:25:34;100346.72;;;18.86;49.31
13719;BME280;6931;51.100;17.068;2022-07-15T08:28:01;100351.47;;;19.14;48.89
13719;BME280;6931;51.100;17.068;2022-07-15T08:30:29;100339.03;;;19.24;47.06
13719;BME280;6931;51.100;17.068;2022-07-15T08:32:57;100347.38;;;19.15;45.63
13719;BME280;6931;51.100;17.068;2022-07-15T08:35:24;100344.94;;;18.92;46.84
13719;BME280;6931;51.100;17.068;2022-07-15T08:37:51;100341.75;;;18.78;47.63
13719;BME280;6931;51.100;17.068;2022-07-15T08:40:18;100347.81;;;18.22;46.53
13719;BME280;6931;51.100;17.068;2022-07-15T08:42:45;100344.56;;;18.78;48.01
13719;BME280;6931;51.100;17.068;2022-07-15T08:45:16;100345.94;;;19.23;46.09
13719;BME280;6931;51.100;17.068;2022-07-15T08:47:45;100353.81;;;19.54;47.02
13719;BME280;6931;51.100;17.068;2022-07-15T08:50:20;100351.00;;;19.28;47.42
13719;BME280;6931;51.100;17.068;2022-07-15T08:52:48;100348.53;;;18.93;47.24
13719;BME280;6931;51.100;17.068;2022-07-15T08:55:15;100356.69;;;18.91;47.23
13719;BME280;6931;51.100;17.068;2022-07-15T08:57:47;100353.38;;;18.80;47.59
13719;BME280;6931;51.100;17.068;2022-07-15T09:00:14;100364.69;;;18.92;47.42
13719;BME280;6931;51.100;17.068;2022-07-15T09:02:42;100364.97;;;18.57;47.32
13719;BME280;6931;51.100;17.068;2022-07-15T09:08:04;100356.75;;;19.50;46.35
13719;BME280;6931;51.100;17.068;2022-07-15T09:10:44;100364.88;;;19.95;45.49
13719;BME280;6931;51.100;17.068;2022-07-15T09:13:33;100374.00;;;19.77;42.64
13719;BME280;6931;51.100;17.068;2022-07-15T09:16:01;100364.34;;;19.53;43.55
13719;BME280;6931;51.100;17.068;2022-07-15T09:18:31;100368.19;;;19.09;41.43
13719;BME280;6931;51.100;17.068;2022-07-15T09:21:00;100373.25;;;18.76;42.43
13719;BME280;6931;51.100;17.068;2022-07-15T09:23:30;100375.63;;;18.78;42.44
13719;BME280;6931;51.100;17.068;2022-07-15T09:28:53;100383.31;;;19.02;43.59
13719;BME280;6931;51.100;17.068;2022-07-15T09:31:37;100378.81;;;18.92;43.45
13719;BME280;6931;51.100;17.068;2022-07-15T09:34:24;100378.13;;;19.13;44.43
13719;BME280;6931;51.100;17.068;2022-07-15T09:36:53;100372.94;;;18.99;42.34
13719;BME280;6931;51.100;17.068;2022-07-15T09:39:22;100373.94;;;18.93;43.19
13719;BME280;6931;51.100;17.068;2022-07-15T09:41:50;100372.25;;;19.20;42.02
13719;BME280;6931;51.100;17.068;2022-07-15T09:44:23;100387.72;;;19.54;41.04
13719;BME280;6931;51.100;17.068;2022-07-15T09:46:52;100364.00;;;19.51;41.41
13719;BME280;6931;51.100;17.068;2022-07-15T09:51:50;100374.94;;;19.24;42.19
13719;BME280;6931;51.100;17.068;2022-07-15T09:54:17;100379.03;;;19.10;42.13
13719;BME280;6931;51.100;17.068;2022-07-15T09:56:48;100377.56;;;19.31;41.95
13719;BME280;6931;51.100;17.068;2022-07-15T09:59:16;100379.94;;;19.58;41.25
13719;BME280;6931;51.100;17.068;2022-07-15T10:01:43;100356.28;;;19.64;40.40
13719;BME280;6931;51.100;17.068;2022-07-15T10:04:11;100361.94;;;19.64;40.92
13719;BME280;6931;51.100;17.068;2022-07-15T10:06:38;100362.38;;;19.63;40.90
13719;BME280;6931;51.100;17.068;2022-07-15T10:09:06;100364.63;;;20.02;38.96
13719;BME280;6931;51.100;17.068;2022-07-15T10:11:36;100379.69;;;19.99;39.43
13719;BME280;6931;51.100;17.068;2022-07-15T10:14:28;100359.91;;;19.65;40.90
13719;BME280;6931;51.100;17.068;2022-07-15T10:22:56;100382.16;;;19.63;40.06
13719;BME280;6931;51.100;17.068;2022-07-15T10:28:14;100367.84;;;20.47;40.55
13719;BME280;6931;51.100;17.068;2022-07-15T10:30:42;100365.31;;;20.71;38.92
13719;BME280;6931;51.100;17.068;2022-07-15T10:33:18;100374.38;;;20.01;38.66
13719;BME280;6931;51.100;17.068;2022-07-15T10:35:51;100373.00;;;19.71;39.49
13719;BME280;6931;51.100;17.068;2022-07-15T10:38:22;100377.66;;;19.65;40.14
13719;BME280;6931;51.100;17.068;2022-07-15T10:41:12;100369.50;;;20.01;39.54
13719;BME280;6931;51.100;17.068;2022-07-15T10:43:54;100358.97;;;20.36;38.84
13719;BME280;6931;51.100;17.068;2022-07-15T10:54:10;100376.47;;;20.22;38.68
13719;BME280;6931;51.100;17.068;2022-07-15T10:56:53;100373.66;;;20.09;39.18
13719;BME280;6931;51.100;17.068;2022-07-15T10:59:20;100365.03;;;20.13;38.82
13719;BME280;6931;51.100;17.068;2022-07-15T11:04:29;100377.25;;;20.44;39.32
13719;BME280;6931;51.100;17.068;2022-07-15T11:10:12;100373.75;;;20.18;39.60
13719;BME280;6931;51.100;17.068;2022-07-15T11:15:20;100381.41;;;19.96;40.98
13719;BME280;6931;51.100;17.068;2022-07-15T11:17:52;100364.81;;;20.41;40.31
13719;BME280;6931;51.100;17.068;2022-07-15T11:20:32;100380.38;;;21.20;40.27
13719;BME280;6931;51.100;17.068;2022-07-15T11:23:00;100377.19;;;20.57;37.96
13719;BME280;6931;51.100;17.068;2022-07-15T11:25:32;100380.88;;;20.44;39.57
13719;BME280;6931;51.100;17.068;2022-07-15T11:28:10;100378.84;;;20.11;39.63
13719;BME280;6931;51.100;17.068;2022-07-15T11:30:46;100377.19;;;20.35;38.90
13719;BME280;6931;51.100;17.068;2022-07-15T11:33:22;100363.88;;;20.66;39.57
13719;BME280;6931;51.100;17.068;2022-07-15T11:36:02;100365.25;;;20.92;37.81
13719;BME280;6931;51.100;17.068;2022-07-15T11:38:37;100368.84;;;21.05;38.05
13719;BME280;6931;51.100;17.068;2022-07-15T11:41:04;100374.22;;;21.21;37.00
13719;BME280;6931;51.100;17.068;2022-07-15T11:44:00;100373.69;;;21.05;36.61
13719;BME280;6931;51.100;17.068;2022-07-15T11:46:46;100370.56;;;20.81;36.79
13719;BME280;6931;51.100;17.068;2022-07-15T11:49:31;100383.47;;;20.61;37.82
13719;BME280;6931;51.100;17.068;2022-07-15T11:51:59;100387.13;;;20.05;38.29
13719;BME280;6931;51.100;17.068;2022-07-15T11:54:26;100385.97;;;20.15;38.58
13719;BME280;6931;51.100;17.068;2022-07-15T11:56:57;100377.53;;;20.03;38.45
13719;BME280;6931;51.100;17.068;2022-07-15T11:59:26;100385.47;;;20.29;38.41
13719;BME280;6931;51.100;17.068;2022-07-15T12:02:04;100376.41;;;20.87;38.85
13719;BME280;6931;51.100;17.068;2022-07-15T12:04:31;100383.94;;;20.59;38.25
13719;BME280;6931;51.100;17.068;2022-07-15T12:06:58;100384.31;;;20.39;38.54
13719;BME280;6931;51.100;17.068;2022-07-15T12:09:26;100369.59;;;20.75;39.04
13719;BME280;6931;51.100;17.068;2022-07-15T12:11:53;100376.03;;;20.76;36.87
13719;BME280;6931;51.100;17.068;2022-07-15T12:14:22;100375.22;;;21.27;37.22
13719;BME280;6931;51.100;17.068;2022-07-15T12:16:51;100372.13;;;21.43;38.33
13719;BME280;6931;51.100;17.068;2022-07-15T12:19:24;100393.66;;;20.80;37.02
13719;BME280;6931;51.100;17.068;2022-07-15T12:22:06;100350.22;;;20.43;36.44
13719;BME280;6931;51.100;17.068;2022-07-15T12:24:47;100387.72;;;20.56;37.57
13719;BME280;6931;51.100;17.068;2022-07-15T12:27:19;100382.72;;;20.60;37.96
13719;BME280;6931;51.100;17.068;2022-07-15T12:30:06;100377.13;;;20.69;37.92
13719;BME280;6931;51.100;17.068;2022-07-15T12:32:36;100374.69;;;20.89;38.92
13719;BME280;6931;51.100;17.068;2022-07-15T12:35:05;100385.31;;;20.76;38.38
13719;BME280;6931;51.100;17.068;2022-07-15T12:40:08;100386.53;;;21.27;38.56
13719;BME280;6931;51.100;17.068;2022-07-15T12:42:45;100381.38;;;21.44;36.61
13719;BME280;6931;51.100;17.068;2022-07-15T12:50:36;100376.84;;;21.07;36.79
13719;BME280;6931;51.100;17.068;2022-07-15T12:53:03;100366.09;;;20.71;36.48
13719;BME280;6931;51.100;17.068;2022-07-15T12:55:33;100380.44;;;20.98;36.19
13719;BME280;6931;51.100;17.068;2022-07-15T12:58:08;100371.66;;;20.84;35.97
13719;BME280;6931;51.100;17.068;2022-07-15T13:00:36;100374.28;;;20.69;35.76
13719;BME280;6931;51.100;17.068;2022-07-15T13:05:36;100375.94;;;20.36;36.45
13719;BME280;6931;51.100;17.068;2022-07-15T13:10:45;100367.69;;;21.42;36.60
13719;BME280;6931;51.100;17.068;2022-07-15T13:13:15;100369.09;;;21.38;36.30
13719;BME280;6931;51.100;17.068;2022-07-15T13:15:43;100366.56;;;21.31;36.36
13719;BME280;6931;51.100;17.068;2022-07-15T13:18:12;100372.13;;;21.52;36.32
13719;BME280;6931;51.100;17.068;2022-07-15T13:20:40;100365.06;;;21.75;35.38
13719;BME280;6931;51.100;17.068;2022-07-15T13:23:07;100368.31;;;21.37;36.28
13719;BME280;6931;51.100;17.068;2022-07-15T13:25:34;100369.22;;;21.25;35.40
13719;BME280;6931;51.100;17.068;2022-07-15T13:28:04;100373.88;;;21.10;35.04
13719;BME280;6931;51.100;17.068;2022-07-15T13:30:32;100386.31;;;21.04;35.61
13719;BME280;6931;51.100;17.068;2022-07-15T13:32:59;100383.06;;;20.71;35.79
13719;BME280;6931;51.100;17.068;2022-07-15T13:35:27;100377.53;;;20.89;36.69
13719;BME280;6931;51.100;17.068;2022-07-15T13:37:54;100372.06;;;20.95;35.78
13719;BME280;6931;51.100;17.068;2022-07-15T13:40:21;100381.25;;;20.77;35.94
13719;BME280;6931;51.100;17.068;2022-07-15T13:42:48;100378.47;;;20.86;36.13
13719;BME280;6931;51.100;17.068;2022-07-15T13:45:15;100383.94;;;20.59;35.82